createdAt,value
2023-02-08T00:00:07.516Z,99.90
2023-02-08T00:02:34.394Z,99.90
2023-02-08T00:05:01.335Z,98.20
2023-02-08T00:07:28.320Z,98.40
2023-02-08T00:09:55.270Z,98.80
2023-02-08T00:12:22.164Z,99.90
2023-02-08T00:14:49.061Z,99.90
2023-02-08T00:17:15.941Z,99.50
2023-02-08T00:19:43.001Z,99.60
2023-02-08T00:22:09.860Z,98.80
2023-02-08T00:24:36.744Z,98.40
2023-02-08T00:27:03.660Z,97.90
2023-02-08T00:29:30.576Z,99.90
2023-02-08T00:31:58.623Z,99.90
2023-02-08T00:34:25.536Z,99.40
2023-02-08T00:36:52.443Z,99.90
2023-02-08T00:39:21.205Z,99.00
2023-02-08T00:41:48.178Z,98.40
2023-02-08T00:44:15.212Z,97.80
2023-02-08T00:46:42.143Z,99.00
2023-02-08T00:49:09.049Z,99.00
2023-02-08T00:51:35.946Z,98.80
2023-02-08T00:54:02.939Z,98.50
2023-02-08T00:56:29.796Z,98.40
2023-02-08T00:58:59.560Z,98.40
2023-02-08T01:01:26.442Z,97.60
2023-02-08T01:03:53.306Z,99.30
2023-02-08T01:06:20.786Z,99.90
2023-02-08T01:08:47.676Z,99.90
2023-02-08T01:11:21.798Z,99.90
2023-02-08T01:13:49.120Z,99.90
2023-02-08T01:16:17.849Z,99.70
2023-02-08T01:18:45.863Z,98.80
2023-02-08T01:21:17.379Z,99.00
2023-02-08T01:23:44.543Z,98.20
2023-02-08T01:26:12.648Z,98.90
2023-02-08T01:28:40.038Z,98.90
2023-02-08T01:31:08.343Z,99.90
2023-02-08T01:33:35.583Z,99.90
2023-02-08T01:36:02.624Z,99.90
2023-02-08T01:38:29.568Z,99.90
2023-02-08T01:40:58.106Z,99.90
2023-02-08T01:43:27.392Z,99.90
2023-02-08T01:45:54.798Z,99.90
2023-02-08T01:48:24.343Z,99.90
2023-02-08T01:50:57.538Z,99.90
2023-02-08T01:53:25.805Z,99.90
2023-02-08T01:55:54.819Z,99.90
2023-02-08T01:58:22.305Z,99.90
2023-02-08T02:00:49.319Z,99.90
2023-02-08T02:03:16.880Z,99.90
2023-02-08T02:05:46.406Z,99.90
2023-02-08T02:08:13.502Z,99.90
2023-02-08T02:10:41.727Z,99.90
2023-02-08T02:13:08.895Z,99.90
2023-02-08T02:15:35.943Z,99.90
2023-02-08T02:18:05.355Z,99.20
2023-02-08T02:20:41.814Z,99.90
2023-02-08T02:23:38.405Z,99.90
2023-02-08T02:26:11.386Z,99.90
2023-02-08T02:28:57.270Z,99.90
2023-02-08T02:31:27.308Z,99.90
2023-02-08T02:33:58.709Z,99.90
2023-02-08T02:36:33.565Z,99.90
2023-02-08T02:39:05.520Z,99.90
2023-02-08T02:41:59.927Z,99.90
2023-02-08T02:44:46.552Z,99.90
2023-02-08T02:47:19.646Z,99.90
2023-02-08T02:50:04.993Z,99.90
2023-02-08T02:52:36.974Z,99.90
2023-02-08T02:55:12.750Z,99.90
2023-02-08T02:57:41.439Z,99.90
2023-02-08T03:00:10.597Z,99.90
2023-02-08T03:02:37.825Z,99.90
2023-02-08T03:05:06.329Z,99.90
2023-02-08T03:07:49.050Z,99.90
2023-02-08T03:10:15.913Z,99.90
2023-02-08T03:12:58.907Z,99.90
2023-02-08T03:15:37.826Z,99.90
2023-02-08T03:18:10.890Z,99.90
2023-02-08T03:20:39.664Z,99.90
2023-02-08T03:23:09.657Z,99.90
2023-02-08T03:25:39.638Z,99.90
2023-02-08T03:28:06.554Z,99.90
2023-02-08T03:30:46.093Z,99.90
2023-02-08T03:33:15.804Z,99.90
2023-02-08T03:35:53.197Z,99.90
2023-02-08T03:38:22.858Z,99.90
2023-02-08T03:40:51.149Z,99.90
2023-02-08T03:43:27.536Z,99.90
2023-02-08T03:45:57.690Z,99.90
2023-02-08T03:48:25.408Z,99.90
2023-02-08T03:50:53.696Z,99.90
2023-02-08T03:53:22.225Z,99.90
2023-02-08T03:55:58.555Z,99.90
2023-02-08T03:58:28.053Z,99.90
2023-02-08T04:00:56.838Z,99.90
2023-02-08T04:03:25.652Z,99.90
2023-02-08T04:05:52.825Z,99.90
2023-02-08T04:08:20.700Z,99.90
2023-02-08T04:10:47.823Z,99.90
2023-02-08T04:13:14.785Z,99.90
2023-02-08T04:15:41.715Z,99.90
2023-02-08T04:18:08.721Z,99.90
2023-02-08T04:20:35.673Z,99.90
2023-02-08T04:23:02.533Z,99.90
2023-02-08T04:25:29.428Z,99.90
2023-02-08T04:27:56.307Z,99.90
2023-02-08T04:30:23.237Z,99.90
2023-02-08T04:32:50.338Z,99.90
2023-02-08T04:35:17.320Z,99.90
2023-02-08T04:37:45.047Z,99.90
2023-02-08T04:40:12.029Z,99.90
2023-02-08T04:42:38.954Z,99.90
2023-02-08T04:45:06.036Z,99.90
2023-02-08T04:47:32.928Z,99.90
2023-02-08T04:49:59.894Z,99.90
2023-02-08T04:52:26.813Z,99.90
2023-02-08T04:54:53.680Z,99.90
2023-02-08T04:57:20.737Z,99.90
2023-02-08T04:59:47.627Z,99.90
2023-02-08T05:02:14.482Z,99.90
2023-02-08T05:04:41.369Z,99.90
2023-02-08T05:07:08.278Z,99.90
2023-02-08T05:09:35.159Z,99.90
2023-02-08T05:12:02.028Z,99.90
2023-02-08T05:14:28.897Z,99.90
2023-02-08T05:16:55.777Z,99.90
2023-02-08T05:19:22.853Z,99.90
2023-02-08T05:21:49.911Z,99.90
2023-02-08T05:24:17.161Z,99.90
2023-02-08T05:26:44.087Z,99.90
2023-02-08T05:29:11.059Z,99.90
2023-02-08T05:31:38.093Z,99.90
2023-02-08T05:34:05.121Z,99.90
2023-02-08T05:36:32.135Z,99.90
2023-02-08T05:38:59.141Z,99.90
2023-02-08T05:41:26.068Z,99.90
2023-02-08T05:43:52.955Z,99.90
2023-02-08T05:46:19.842Z,99.90
2023-02-08T05:48:46.833Z,99.90
2023-02-08T05:51:13.773Z,99.90
2023-02-08T05:53:40.813Z,99.90
2023-02-08T05:56:07.972Z,99.90
2023-02-08T05:58:34.968Z,99.90
2023-02-08T06:01:02.458Z,99.90
2023-02-08T06:03:29.496Z,99.90
2023-02-08T06:05:59.926Z,99.90
2023-02-08T06:08:26.862Z,99.90
2023-02-08T06:10:53.697Z,99.90
2023-02-08T06:13:20.570Z,99.90
2023-02-08T06:15:47.457Z,99.90
2023-02-08T06:18:14.628Z,99.90
2023-02-08T06:20:41.897Z,99.90
2023-02-08T06:23:08.966Z,99.90
2023-02-08T06:25:35.863Z,99.90
2023-02-08T06:28:03.237Z,99.90
2023-02-08T06:30:30.237Z,99.90
2023-02-08T06:32:57.340Z,99.90
2023-02-08T06:35:24.242Z,99.90
2023-02-08T06:37:51.124Z,99.90
2023-02-08T06:40:18.284Z,99.90
2023-02-08T06:42:46.491Z,99.90
2023-02-08T06:45:13.780Z,99.90
2023-02-08T06:47:40.874Z,99.90
2023-02-08T06:50:08.031Z,99.90
2023-02-08T06:52:35.228Z,99.90
2023-02-08T06:55:02.105Z,99.90
2023-02-08T06:57:28.973Z,99.90
2023-02-08T06:59:55.836Z,99.90
2023-02-08T07:02:22.916Z,99.90
2023-02-08T07:04:50.184Z,99.90
2023-02-08T07:07:17.433Z,99.90
2023-02-08T07:09:44.670Z,99.90
2023-02-08T07:12:11.664Z,99.90
2023-02-08T07:14:42.567Z,99.90
2023-02-08T07:17:10.015Z,99.90
2023-02-08T07:19:36.930Z,99.90
2023-02-08T07:22:10.475Z,99.90
2023-02-08T07:24:38.255Z,99.90
2023-02-08T07:27:05.743Z,99.90
2023-02-08T07:29:32.916Z,99.90
2023-02-08T07:32:00.827Z,99.90
2023-02-08T07:34:32.013Z,99.90
2023-02-08T07:36:58.964Z,99.90
2023-02-08T07:39:25.997Z,99.90
2023-02-08T07:41:53.003Z,99.90
2023-02-08T07:44:20.218Z,99.90
2023-02-08T07:46:47.221Z,99.90
2023-02-08T07:49:14.105Z,99.90
2023-02-08T07:51:41.202Z,99.90
2023-02-08T07:54:08.093Z,99.90
2023-02-08T07:56:35.059Z,99.90
2023-02-08T07:59:01.951Z,99.90
2023-02-08T08:01:28.859Z,99.90
2023-02-08T08:03:55.919Z,99.90
2023-02-08T08:06:23.353Z,99.90
2023-02-08T08:08:50.636Z,99.90
2023-02-08T08:11:18.462Z,99.90
2023-02-08T08:13:45.689Z,99.90
2023-02-08T08:16:12.804Z,99.90
2023-02-08T08:18:39.803Z,99.90
2023-02-08T08:21:06.924Z,98.90
2023-02-08T08:23:33.942Z,98.00
2023-02-08T08:26:00.859Z,96.80
2023-02-08T08:28:27.968Z,95.10
2023-02-08T08:30:55.143Z,94.00
2023-02-08T08:33:22.099Z,93.00
2023-02-08T08:35:49.044Z,93.00
2023-02-08T08:38:15.944Z,93.70
2023-02-08T08:40:43.228Z,93.60
2023-02-08T08:43:10.594Z,93.90
2023-02-08T08:45:37.522Z,94.60
2023-02-08T08:48:04.579Z,95.40
2023-02-08T08:50:31.556Z,95.90
2023-02-08T08:52:58.468Z,95.80
2023-02-08T08:55:26.040Z,96.30
2023-02-08T08:57:53.736Z,96.60
2023-02-08T09:00:20.776Z,96.60
2023-02-08T09:02:47.728Z,96.80
2023-02-08T09:05:14.590Z,94.00
2023-02-08T09:07:41.502Z,93.40
2023-02-08T09:10:08.496Z,93.40
2023-02-08T09:12:35.535Z,92.90
2023-02-08T09:15:02.465Z,91.30
2023-02-08T09:17:29.363Z,92.00
2023-02-08T09:19:56.372Z,92.30
2023-02-08T09:22:23.302Z,92.60
2023-02-08T09:24:50.236Z,91.40
2023-02-08T09:27:19.150Z,90.90
2023-02-08T09:29:46.134Z,91.20
2023-02-08T09:32:13.099Z,90.90
2023-02-08T09:34:40.226Z,89.40
2023-02-08T09:37:07.496Z,87.10
2023-02-08T09:39:35.050Z,86.30
2023-02-08T09:42:10.109Z,87.40
2023-02-08T09:44:43.133Z,88.50
2023-02-08T09:47:16.222Z,86.50
2023-02-08T09:49:46.012Z,87.90
2023-02-08T09:52:21.278Z,89.30
2023-02-08T09:54:57.261Z,89.80
2023-02-08T09:57:26.746Z,90.10
2023-02-08T09:59:55.779Z,90.10
2023-02-08T10:02:27.465Z,89.10
2023-02-08T10:04:57.490Z,88.30
2023-02-08T10:07:28.379Z,86.30
2023-02-08T10:09:56.835Z,87.80
2023-02-08T10:12:32.973Z,88.40
2023-02-08T10:15:20.101Z,89.20
2023-02-08T10:18:04.579Z,89.70
2023-02-08T10:20:44.030Z,87.60
2023-02-08T10:23:40.605Z,89.90
2023-02-08T10:26:16.721Z,90.70
2023-02-08T10:28:48.717Z,91.10
2023-02-08T10:31:25.470Z,90.70
2023-02-08T10:34:01.637Z,91.00
2023-02-08T10:36:33.707Z,91.40
2023-02-08T10:39:02.131Z,91.50
2023-02-08T10:41:34.201Z,91.60
2023-02-08T10:44:07.379Z,91.70
2023-02-08T10:46:37.584Z,91.90
2023-02-08T10:49:23.542Z,91.70
2023-02-08T10:51:50.693Z,91.60
2023-02-08T10:54:20.570Z,91.60
2023-02-08T10:56:47.671Z,91.70
2023-02-08T10:59:16.979Z,92.20
2023-02-08T11:01:45.384Z,92.20
2023-02-08T11:04:13.601Z,92.00
2023-02-08T11:06:41.715Z,91.90
2023-02-08T11:09:20.167Z,91.80
2023-02-08T11:11:48.037Z,91.90
2023-02-08T11:14:18.573Z,92.30
2023-02-08T11:16:52.510Z,92.50
2023-02-08T11:19:25.114Z,92.70
2023-02-08T11:21:52.507Z,92.20
2023-02-08T11:24:40.243Z,92.30
2023-02-08T11:27:30.546Z,92.50
2023-02-08T11:30:17.542Z,92.20
2023-02-08T11:32:46.200Z,92.10
2023-02-08T11:35:24.418Z,92.10
2023-02-08T11:37:52.323Z,91.90
2023-02-08T11:40:21.245Z,91.80
2023-02-08T11:42:48.243Z,91.90
2023-02-08T11:45:23.060Z,92.30
2023-02-08T11:47:50.247Z,92.10
2023-02-08T11:50:37.304Z,92.10
2023-02-08T11:53:04.189Z,92.10
2023-02-08T11:55:32.322Z,91.80
2023-02-08T11:58:02.192Z,91.90
2023-02-08T12:00:36.542Z,91.60
2023-02-08T12:03:23.569Z,91.70
2023-02-08T12:05:53.493Z,91.90
2023-02-08T12:08:27.906Z,91.80
2023-02-08T12:10:55.078Z,91.70
2023-02-08T12:13:22.010Z,91.60
2023-02-08T12:15:58.297Z,91.80
2023-02-08T12:18:25.359Z,91.90
2023-02-08T12:20:58.081Z,91.90
2023-02-08T12:23:33.530Z,91.50
2023-02-08T12:26:00.416Z,91.70
2023-02-08T12:28:42.637Z,91.80
2023-02-08T12:31:28.761Z,92.10
2023-02-08T12:33:58.777Z,92.20
2023-02-08T12:36:39.565Z,92.10
2023-02-08T12:39:44.327Z,91.90
2023-02-08T12:42:23.217Z,91.90
2023-02-08T12:45:09.938Z,92.20
2023-02-08T12:48:04.189Z,92.00
2023-02-08T12:50:46.065Z,92.10
2023-02-08T12:53:12.907Z,91.80
2023-02-08T12:55:41.856Z,91.80
2023-02-08T12:58:29.736Z,91.20
2023-02-08T13:01:00.118Z,91.50
2023-02-08T13:03:43.308Z,92.20
2023-02-08T13:06:15.383Z,92.10
2023-02-08T13:09:02.068Z,91.80
2023-02-08T13:11:31.958Z,91.70
2023-02-08T13:14:04.798Z,91.10
2023-02-08T13:16:34.930Z,91.30
2023-02-08T13:19:11.828Z,91.20
2023-02-08T13:21:42.005Z,91.20
2023-02-08T13:24:19.293Z,91.40
2023-02-08T13:26:46.181Z,91.30
2023-02-08T13:29:17.546Z,91.40
2023-02-08T13:31:47.091Z,91.80
2023-02-08T13:34:20.224Z,91.60
2023-02-08T13:36:52.018Z,91.90
2023-02-08T13:39:39.264Z,91.90
2023-02-08T13:42:06.988Z,91.80
2023-02-08T13:44:43.154Z,91.80
2023-02-08T13:47:22.710Z,91.90
2023-02-08T13:49:49.613Z,92.10
2023-02-08T13:52:47.483Z,92.10
2023-02-08T13:55:30.957Z,92.10
2023-02-08T13:57:59.116Z,92.00
2023-02-08T14:00:36.025Z,91.80
2023-02-08T14:03:09.115Z,91.70
2023-02-08T14:05:39.024Z,91.90
2023-02-08T14:08:06.528Z,92.00
2023-02-08T14:10:42.225Z,91.90
2023-02-08T14:13:28.089Z,91.80
2023-02-08T14:16:13.891Z,91.70
2023-02-08T14:18:50.878Z,92.10
2023-02-08T14:21:38.564Z,91.90
2023-02-08T14:24:07.778Z,91.70
2023-02-08T14:26:36.625Z,91.80
2023-02-08T14:29:05.108Z,91.80
2023-02-08T14:31:40.982Z,92.30
2023-02-08T14:34:20.822Z,92.40
2023-02-08T14:36:57.918Z,92.40
2023-02-08T14:39:26.834Z,92.40
2023-02-08T14:41:55.363Z,92.50
2023-02-08T14:44:37.623Z,92.60
2023-02-08T14:47:23.509Z,92.70
2023-02-08T14:49:52.586Z,92.70
2023-02-08T14:52:21.363Z,92.50
2023-02-08T14:54:56.851Z,92.70
2023-02-08T14:57:29.172Z,92.60
2023-02-08T14:59:58.906Z,92.80
2023-02-08T15:02:31.318Z,93.00
2023-02-08T15:04:58.568Z,92.80
2023-02-08T15:07:34.755Z,92.80
2023-02-08T15:10:06.393Z,92.80
2023-02-08T15:16:58.574Z,93.00
2023-02-08T15:19:30.624Z,92.90
2023-02-08T15:22:16.630Z,93.10
2023-02-08T15:24:50.308Z,92.80
2023-02-08T15:27:25.950Z,92.70
2023-02-08T15:29:53.216Z,92.80
2023-02-08T15:32:21.871Z,92.90
2023-02-08T15:34:59.281Z,93.50
2023-02-08T15:37:27.374Z,93.30
2023-02-08T15:39:55.421Z,93.60
2023-02-08T15:42:26.849Z,93.80
2023-02-08T15:44:53.839Z,96.70
2023-02-08T15:47:28.795Z,94.10
2023-02-08T15:49:56.437Z,94.20
2023-02-08T15:52:28.715Z,94.60
2023-02-08T15:54:55.846Z,94.20
2023-02-08T15:57:29.065Z,94.40
2023-02-08T15:59:56.310Z,94.50
2023-02-08T16:02:25.427Z,94.70
2023-02-08T16:04:52.455Z,94.60
2023-02-08T16:07:22.481Z,94.60
2023-02-08T16:09:49.905Z,94.60
2023-02-08T16:12:21.928Z,94.60
2023-02-08T16:14:52.732Z,94.90
2023-02-08T16:17:32.506Z,95.10
2023-02-08T16:19:59.676Z,95.60
2023-02-08T16:22:31.019Z,95.70
2023-02-08T16:25:16.781Z,95.90
2023-02-08T16:27:47.384Z,95.70
2023-02-08T16:30:17.263Z,95.80
2023-02-08T16:32:44.924Z,96.20
2023-02-08T16:35:12.905Z,96.10
2023-02-08T16:37:40.626Z,96.30
2023-02-08T16:40:27.960Z,96.40
2023-02-08T16:43:14.902Z,96.90
2023-02-08T16:45:42.216Z,96.90
2023-02-08T16:48:31.054Z,96.80
2023-02-08T16:50:58.513Z,97.10
2023-02-08T16:53:40.240Z,97.30
2023-02-08T16:56:09.421Z,97.60
2023-02-08T16:58:36.614Z,98.40
2023-02-08T17:01:05.778Z,98.20
2023-02-08T17:03:33.269Z,98.40
2023-02-08T17:06:01.175Z,98.30
2023-02-08T17:08:28.364Z,99.60
2023-02-08T17:10:59.207Z,99.20
2023-02-08T17:13:27.638Z,99.30
2023-02-08T17:15:54.906Z,98.80
2023-02-08T17:18:22.393Z,98.30
2023-02-08T17:20:49.897Z,98.60
2023-02-08T17:23:17.259Z,99.20
2023-02-08T17:25:44.944Z,99.90
2023-02-08T17:28:16.498Z,99.80
2023-02-08T17:30:46.071Z,99.80
2023-02-08T17:33:20.080Z,99.70
2023-02-08T17:35:48.819Z,99.30
2023-02-08T17:38:16.798Z,99.30
2023-02-08T17:40:44.411Z,99.80
2023-02-08T17:43:12.711Z,99.90
2023-02-08T17:45:41.409Z,99.90
2023-02-08T17:48:09.157Z,99.70
2023-02-08T17:50:37.098Z,99.70
2023-02-08T17:53:05.212Z,99.90
2023-02-08T17:55:33.786Z,99.90
2023-02-08T17:58:01.396Z,99.90
2023-02-08T18:00:28.883Z,99.90
2023-02-08T18:02:59.055Z,99.60
2023-02-08T18:05:28.962Z,99.90
2023-02-08T18:07:57.070Z,99.90
2023-02-08T18:10:25.866Z,99.80
2023-02-08T18:12:56.914Z,99.80
2023-02-08T18:15:24.824Z,99.70
2023-02-08T18:17:52.647Z,99.50
2023-02-08T18:20:20.528Z,99.20
2023-02-08T18:22:48.279Z,99.30
2023-02-08T18:25:16.414Z,99.30
2023-02-08T18:27:44.286Z,99.30
2023-02-08T18:30:12.424Z,99.20
2023-02-08T18:32:40.268Z,99.20
2023-02-08T18:35:09.375Z,99.20
2023-02-08T18:37:37.459Z,99.90
2023-02-08T18:40:07.176Z,99.90
2023-02-08T18:42:36.305Z,99.90
2023-02-08T18:45:05.295Z,99.90
2023-02-08T18:47:34.522Z,99.90
2023-02-08T18:50:02.549Z,99.90
2023-02-08T18:52:31.618Z,99.90
2023-02-08T18:55:00.018Z,99.90
2023-02-08T18:57:27.948Z,99.90
2023-02-08T18:59:56.630Z,99.90
2023-02-08T19:02:27.015Z,99.90
2023-02-08T19:04:54.753Z,99.90
2023-02-08T19:07:23.017Z,99.90
2023-02-08T19:09:50.956Z,99.90
2023-02-08T19:12:19.661Z,99.90
2023-02-08T19:14:51.475Z,99.90
2023-02-08T19:17:19.770Z,99.90
2023-02-08T19:19:48.345Z,99.90
2023-02-08T19:22:16.493Z,99.90
2023-02-08T19:24:54.699Z,99.90
2023-02-08T19:27:23.437Z,99.90
2023-02-08T19:29:53.691Z,99.90
2023-02-08T19:32:21.942Z,99.90
2023-02-08T19:34:49.977Z,99.90
2023-02-08T19:37:18.515Z,99.90
2023-02-08T19:39:46.465Z,99.90
2023-02-08T19:42:14.340Z,99.90
2023-02-08T19:44:42.213Z,99.90
2023-02-08T19:47:10.390Z,99.90
2023-02-08T19:49:37.794Z,99.90
2023-02-08T19:52:05.692Z,99.90
2023-02-08T19:54:33.815Z,99.90
2023-02-08T19:57:01.738Z,99.90
2023-02-08T19:59:34.888Z,99.90
2023-02-08T20:02:03.272Z,99.90
2023-02-08T20:04:31.414Z,99.90
2023-02-08T20:06:59.326Z,99.90
2023-02-08T20:09:27.442Z,99.90
2023-02-08T20:11:57.361Z,99.90
2023-02-08T20:14:30.552Z,99.90
2023-02-08T20:16:58.416Z,99.90
2023-02-08T20:19:26.386Z,99.90
2023-02-08T20:21:57.000Z,99.90
2023-02-08T20:24:24.621Z,99.90
2023-02-08T20:26:52.700Z,99.90
2023-02-08T20:29:21.517Z,99.90
2023-02-08T20:31:52.546Z,99.90
2023-02-08T20:34:20.478Z,99.90
2023-02-08T20:37:05.705Z,99.90
2023-02-08T20:39:35.322Z,99.90
2023-02-08T20:42:03.577Z,99.90
2023-02-08T20:44:32.096Z,99.90
2023-02-08T20:47:01.542Z,99.90
2023-02-08T20:49:29.990Z,99.90
2023-02-08T20:51:57.676Z,99.90
2023-02-08T20:54:25.613Z,99.90
2023-02-08T20:56:54.101Z,99.90
2023-02-08T20:59:21.926Z,99.90
2023-02-08T21:01:49.949Z,99.90
2023-02-08T21:04:18.278Z,99.90
2023-02-08T21:06:46.533Z,99.90
2023-02-08T21:09:16.161Z,99.90
2023-02-08T21:11:43.761Z,99.90
2023-02-08T21:14:19.147Z,99.90
2023-02-08T21:16:48.161Z,99.90
2023-02-08T21:19:15.899Z,99.90
2023-02-08T21:21:42.915Z,99.90
2023-02-08T21:24:11.724Z,99.90
2023-02-08T21:26:39.271Z,99.90
2023-02-08T21:29:06.763Z,99.90
2023-02-08T21:31:34.771Z,99.90
2023-02-08T21:34:02.313Z,99.90
2023-02-08T21:36:29.712Z,99.90
2023-02-08T21:38:59.755Z,99.90
2023-02-08T21:41:28.523Z,99.90
2023-02-08T21:43:56.599Z,99.90
2023-02-08T21:46:28.502Z,99.90
2023-02-08T21:49:15.511Z,99.90
2023-02-08T21:52:01.271Z,99.90
2023-02-08T21:54:29.832Z,99.90
2023-02-08T21:57:00.249Z,99.90
2023-02-08T21:59:27.510Z,99.90
2023-02-08T22:01:54.704Z,99.90
2023-02-08T22:04:21.780Z,99.90
2023-02-08T22:06:52.253Z,99.90
2023-02-08T22:09:20.050Z,99.90
2023-02-08T22:11:50.368Z,99.90
2023-02-08T22:14:17.329Z,99.90
2023-02-08T22:16:44.274Z,99.90
2023-02-08T22:19:11.171Z,99.90
2023-02-08T22:21:38.126Z,99.90
2023-02-08T22:24:05.131Z,99.90
2023-02-08T22:26:32.074Z,99.90
2023-02-08T22:28:58.998Z,99.90
2023-02-08T22:31:26.071Z,99.90
2023-02-08T22:33:54.769Z,99.90
2023-02-08T22:36:21.737Z,99.90
2023-02-08T22:38:48.650Z,99.90
2023-02-08T22:41:16.382Z,99.90
2023-02-08T22:43:43.620Z,99.90
2023-02-08T22:46:10.791Z,99.90
2023-02-08T22:48:37.699Z,99.90
2023-02-08T22:51:08.767Z,99.90
2023-02-08T22:53:35.838Z,99.90
2023-02-08T22:56:03.147Z,99.90
2023-02-08T22:58:30.113Z,99.90
2023-02-08T23:00:57.037Z,99.90
2023-02-08T23:03:24.023Z,99.90
2023-02-08T23:05:51.627Z,99.90
2023-02-08T23:08:19.714Z,99.90
2023-02-08T23:10:46.877Z,99.90
2023-02-08T23:13:13.944Z,99.90
2023-02-08T23:15:41.977Z,99.90
2023-02-08T23:18:09.308Z,99.90
2023-02-08T23:20:37.342Z,99.90
2023-02-08T23:23:04.312Z,99.90
2023-02-08T23:25:31.445Z,99.90
2023-02-08T23:27:58.427Z,99.90
2023-02-08T23:30:25.568Z,99.90
2023-02-08T23:32:52.451Z,99.90
2023-02-08T23:35:19.398Z,99.90
2023-02-08T23:37:46.327Z,99.90
2023-02-08T23:40:13.420Z,99.90
2023-02-08T23:42:40.484Z,99.90
2023-02-08T23:45:07.880Z,99.90
2023-02-08T23:47:35.048Z,99.90
2023-02-08T23:50:01.952Z,99.90
2023-02-08T23:52:28.803Z,99.90
2023-02-08T23:54:55.839Z,99.90
2023-02-08T23:57:22.680Z,99.90
2023-02-08T23:59:49.657Z,99.90
